createdAt,value
2018-08-30T00:08:47.381Z,22.6
2018-08-30T00:18:46.619Z,22.6
2018-08-30T00:28:45.865Z,22.5
2018-08-30T00:38:45.104Z,22.4
2018-08-30T00:48:44.365Z,22.4
2018-08-30T00:58:43.582Z,22.4
2018-08-30T01:08:42.822Z,22.4
2018-08-30T01:18:42.071Z,22.4
2018-08-30T01:28:41.306Z,22.3
2018-08-30T01:38:40.544Z,22.3
2018-08-30T01:48:39.793Z,22.3
2018-08-30T01:58:39.033Z,22.3
2018-08-30T02:08:38.268Z,22.3
2018-08-30T02:18:37.508Z,22.2
2018-08-30T02:28:36.752Z,22.2
2018-08-30T02:38:35.988Z,22.2
2018-08-30T02:48:35.230Z,22.1
2018-08-30T02:58:34.469Z,22.1
2018-08-30T03:08:33.709Z,22.1
2018-08-30T03:18:32.949Z,22.1
2018-08-30T03:28:32.191Z,22
2018-08-30T03:38:31.431Z,22
2018-08-30T03:48:30.671Z,21.9
2018-08-30T03:58:29.912Z,21.9
2018-08-30T04:08:29.150Z,21.9
2018-08-30T04:18:28.393Z,21.8
2018-08-30T04:28:27.640Z,21.8
2018-08-30T04:38:26.872Z,21.9
2018-08-30T04:48:26.113Z,22.1
2018-08-30T04:58:25.358Z,22.3
2018-08-30T05:08:24.600Z,22.5
2018-08-30T05:18:23.838Z,22.6
2018-08-30T05:28:23.079Z,22.8
2018-08-30T05:38:22.318Z,22.9
2018-08-30T05:48:21.558Z,23.2
2018-08-30T05:58:20.799Z,23.4
2018-08-30T06:08:20.110Z,23.7
2018-08-30T06:18:19.276Z,24
2018-08-30T06:28:18.523Z,24.3
2018-08-30T06:38:17.762Z,24.6
2018-08-30T06:48:16.996Z,24.8
2018-08-30T06:58:16.247Z,25.1
2018-08-30T07:08:15.541Z,25.5
2018-08-30T07:18:14.717Z,25.9
2018-08-30T07:28:13.962Z,26.1
2018-08-30T07:38:13.203Z,26.3
2018-08-30T07:48:12.441Z,26.4
2018-08-30T07:58:11.689Z,26.6
2018-08-30T08:08:10.927Z,26.7
2018-08-30T08:18:10.166Z,26.9
2018-08-30T08:28:09.413Z,27
2018-08-30T08:38:08.655Z,27.1
2018-08-30T08:48:07.896Z,27.3
2018-08-30T08:58:07.140Z,27.4
2018-08-30T09:08:06.393Z,27.6
2018-08-30T09:18:05.630Z,27.7
2018-08-30T09:28:04.872Z,27.8
2018-08-30T09:38:04.118Z,27.9
2018-08-30T09:48:03.359Z,27.9
2018-08-30T09:58:02.603Z,28.1
2018-08-30T10:08:01.845Z,28.1
2018-08-30T10:18:01.091Z,28.1
2018-08-30T10:28:00.333Z,28.1
2018-08-30T10:37:59.577Z,28.1
2018-08-30T10:47:58.823Z,28.1
2018-08-30T10:57:58.070Z,28.1
2018-08-30T11:07:57.346Z,28.2
2018-08-30T11:17:56.555Z,28.2
2018-08-30T11:27:55.800Z,28.1
2018-08-30T11:37:55.042Z,28.1
2018-08-30T11:47:54.285Z,28.2
2018-08-30T11:57:53.532Z,28.1
2018-08-30T12:07:52.817Z,28.1
2018-08-30T12:17:52.032Z,28.1
2018-08-30T12:27:51.263Z,28.1
2018-08-30T12:37:50.506Z,28.1
2018-08-30T12:47:49.813Z,28.1
2018-08-30T12:57:49.070Z,28
2018-08-30T13:07:48.489Z,27.9
2018-08-30T13:17:47.763Z,27.9
2018-08-30T13:27:47.065Z,27.9
2018-08-30T13:37:46.375Z,27.9
2018-08-30T13:47:45.741Z,27.9
2018-08-30T13:57:45.135Z,27.9
2018-08-30T14:07:44.209Z,27.9
2018-08-30T14:17:42.953Z,27.9
2018-08-30T14:27:42.207Z,27.8
2018-08-30T14:37:41.469Z,27.8
2018-08-30T14:47:40.750Z,27.8
2018-08-30T14:57:39.928Z,27.8
2018-08-30T15:07:39.194Z,27.8
2018-08-30T15:17:38.420Z,27.8
2018-08-30T15:27:37.668Z,27.8
2018-08-30T15:37:36.909Z,27.8
2018-08-30T15:47:36.208Z,27.7
2018-08-30T15:57:35.400Z,27.6
2018-08-30T16:07:34.643Z,27.6
2018-08-30T16:17:33.883Z,27.5
2018-08-30T16:27:33.130Z,27.4
2018-08-30T16:37:32.375Z,27.3
2018-08-30T16:47:31.615Z,27.3
2018-08-30T16:57:30.913Z,27
2018-08-30T17:07:30.102Z,26.8
2018-08-30T17:17:29.419Z,26.6
2018-08-30T17:27:28.590Z,26.4
2018-08-30T17:37:27.833Z,26.3
2018-08-30T17:47:27.082Z,26.1
2018-08-30T17:57:26.325Z,25.9
2018-08-30T18:07:25.568Z,25.9
2018-08-30T18:17:24.822Z,25.8
2018-08-30T18:27:24.057Z,25.6
2018-08-30T18:37:23.308Z,25.6
2018-08-30T18:47:22.547Z,25.4
2018-08-30T18:57:21.846Z,25.3
2018-08-30T19:07:21.039Z,25.1
2018-08-30T19:17:20.283Z,25.1
2018-08-30T19:27:19.531Z,25
2018-08-30T19:37:18.779Z,24.9
2018-08-30T19:47:18.025Z,24.9
2018-08-30T19:57:17.265Z,24.8
2018-08-30T20:07:16.516Z,24.8
2018-08-30T20:17:15.757Z,24.7
2018-08-30T20:27:14.999Z,24.6
2018-08-30T20:37:14.254Z,24.6
2018-08-30T20:47:13.487Z,24.5
2018-08-30T20:57:12.730Z,24.4
2018-08-30T21:07:11.976Z,24.4
2018-08-30T21:17:11.221Z,24.4
2018-08-30T21:27:10.466Z,24.4
2018-08-30T21:37:09.705Z,24.3
2018-08-30T21:47:08.954Z,24.3
2018-08-30T21:57:08.197Z,24.3
2018-08-30T22:07:07.438Z,24.3
2018-08-30T22:17:06.677Z,24.1
2018-08-30T22:27:05.924Z,24.1
2018-08-30T22:37:05.263Z,24
2018-08-30T22:47:04.410Z,23.9
2018-08-30T22:57:03.648Z,23.9
2018-08-30T23:07:02.895Z,23.8
2018-08-30T23:17:02.144Z,23.8
2018-08-30T23:27:01.380Z,23.7
2018-08-30T23:37:00.625Z,23.6
2018-08-30T23:46:59.860Z,23.5
2018-08-30T23:56:59.101Z,23.4
